createdAt,value
2022-11-04T00:00:00.524Z,5.40
2022-11-04T00:02:27.319Z,6.85
2022-11-04T00:04:54.024Z,6.85
2022-11-04T00:07:39.189Z,5.13
2022-11-04T00:10:06.358Z,4.95
2022-11-04T00:12:33.061Z,6.10
2022-11-04T00:15:19.695Z,6.20
2022-11-04T00:17:46.321Z,5.43
2022-11-04T00:20:31.726Z,6.30
2022-11-04T00:23:16.872Z,6.10
2022-11-04T00:26:02.208Z,3.42
2022-11-04T00:28:44.084Z,4.07
2022-11-04T00:31:29.650Z,5.18
2022-11-04T00:33:58.379Z,5.20
2022-11-04T00:36:26.211Z,3.58
2022-11-04T00:38:53.713Z,2.58
2022-11-04T00:41:27.360Z,4.13
2022-11-04T00:44:02.165Z,3.70
2022-11-04T00:46:30.939Z,4.32
2022-11-04T00:48:57.985Z,4.40
2022-11-04T00:51:24.991Z,5.20
2022-11-04T00:53:52.274Z,4.85
2022-11-04T00:56:19.052Z,3.75
2022-11-04T00:58:45.911Z,3.20
2022-11-04T01:01:18.279Z,5.18
2022-11-04T01:03:49.932Z,1.65
2022-11-04T01:06:17.758Z,2.92
2022-11-04T01:08:44.665Z,3.72
2022-11-04T01:11:12.173Z,4.25
2022-11-04T01:13:39.739Z,2.33
2022-11-04T01:16:09.663Z,4.00
2022-11-04T01:18:37.132Z,2.38
2022-11-04T01:21:06.066Z,2.00
2022-11-04T01:23:34.783Z,6.15
2022-11-04T01:26:01.416Z,3.35
2022-11-04T01:28:28.095Z,4.22
2022-11-04T01:30:54.730Z,5.30
2022-11-04T01:33:21.359Z,4.53
2022-11-04T01:35:47.980Z,3.63
2022-11-04T01:38:14.655Z,3.80
2022-11-04T01:40:41.458Z,3.00
2022-11-04T01:43:16.931Z,1.80
2022-11-04T01:45:52.049Z,3.53
2022-11-04T01:48:34.475Z,2.53
2022-11-04T01:51:01.194Z,5.32
2022-11-04T01:53:41.522Z,4.15
2022-11-04T01:56:12.479Z,5.07
2022-11-04T01:58:56.204Z,2.30
2022-11-04T02:01:23.303Z,2.50
2022-11-04T02:04:19.267Z,1.80
2022-11-04T02:06:48.515Z,2.78
2022-11-04T02:09:17.626Z,4.07
2022-11-04T02:12:02.915Z,2.80
2022-11-04T02:14:30.617Z,1.40
2022-11-04T02:17:15.188Z,6.10
2022-11-04T02:20:06.712Z,2.75
2022-11-04T02:22:45.598Z,3.10
2022-11-04T02:25:18.403Z,5.13
2022-11-04T02:28:16.367Z,3.72
2022-11-04T02:30:49.429Z,5.60
2022-11-04T02:33:30.162Z,1.75
2022-11-04T02:36:19.290Z,2.50
2022-11-04T02:39:00.741Z,5.63
2022-11-04T02:41:52.883Z,1.38
2022-11-04T02:44:51.905Z,5.03
2022-11-04T02:47:26.464Z,4.07
2022-11-04T02:50:01.158Z,2.55
2022-11-04T02:53:01.880Z,4.07
2022-11-04T02:55:43.498Z,2.85
2022-11-04T02:58:18.530Z,2.80
2022-11-04T03:00:47.064Z,6.50
2022-11-04T03:03:18.840Z,2.90
2022-11-04T03:05:49.682Z,2.88
2022-11-04T03:08:38.414Z,2.95
2022-11-04T03:11:15.605Z,2.05
2022-11-04T03:13:55.947Z,3.20
2022-11-04T03:16:29.785Z,4.50
2022-11-04T03:19:07.379Z,2.22
2022-11-04T03:21:39.288Z,2.30
2022-11-04T03:24:06.615Z,2.67
2022-11-04T03:27:01.069Z,2.63
2022-11-04T03:29:27.819Z,3.50
2022-11-04T03:32:00.652Z,3.40
2022-11-04T03:34:27.519Z,2.15
2022-11-04T03:36:54.302Z,2.53
2022-11-04T03:39:21.156Z,3.55
2022-11-04T03:41:57.543Z,1.83
2022-11-04T03:44:25.108Z,4.82
2022-11-04T03:46:56.247Z,3.28
2022-11-04T03:49:24.994Z,4.40
2022-11-04T03:51:52.530Z,5.30
2022-11-04T03:54:20.014Z,2.80
2022-11-04T03:57:23.954Z,4.57
2022-11-04T04:02:47.740Z,3.08
2022-11-04T04:05:35.755Z,5.35
2022-11-04T04:08:26.933Z,2.97
2022-11-04T04:11:23.407Z,2.17
2022-11-04T04:14:13.380Z,5.93
2022-11-04T04:16:45.582Z,6.38
2022-11-04T04:19:19.794Z,4.25
2022-11-04T04:22:03.619Z,5.80
2022-11-04T04:24:54.388Z,5.50
2022-11-04T04:27:32.155Z,2.25
2022-11-04T04:30:16.865Z,2.38
2022-11-04T04:32:51.723Z,4.90
2022-11-04T04:35:43.122Z,3.78
2022-11-04T04:38:56.436Z,2.88
2022-11-04T04:41:47.213Z,2.47
2022-11-04T04:44:52.978Z,1.80
2022-11-04T04:47:23.600Z,3.13
2022-11-04T04:49:58.145Z,2.72
2022-11-04T04:52:27.310Z,2.90
2022-11-04T04:54:53.969Z,1.83
2022-11-04T04:57:20.675Z,3.38
2022-11-04T04:59:47.302Z,2.75
2022-11-04T05:02:14.177Z,2.58
2022-11-04T05:04:40.985Z,4.90
2022-11-04T05:07:10.074Z,5.72
2022-11-04T05:09:37.116Z,2.83
2022-11-04T05:12:03.961Z,3.97
2022-11-04T05:14:30.729Z,3.38
2022-11-04T05:16:57.757Z,4.55
2022-11-04T05:19:24.511Z,3.13
2022-11-04T05:21:51.185Z,2.88
2022-11-04T05:24:17.845Z,3.67
2022-11-04T05:26:44.569Z,2.05
2022-11-04T05:29:12.536Z,5.90
2022-11-04T05:31:39.550Z,3.70
2022-11-04T05:34:06.659Z,3.97
2022-11-04T05:36:33.439Z,1.02
2022-11-04T05:39:00.191Z,1.85
2022-11-04T05:41:27.098Z,3.03
2022-11-04T05:44:02.206Z,3.10
2022-11-04T05:46:29.703Z,1.17
2022-11-04T05:48:56.950Z,2.53
2022-11-04T05:51:27.209Z,4.30
2022-11-04T05:53:54.016Z,3.53
2022-11-04T05:56:21.099Z,2.80
2022-11-04T05:58:47.778Z,5.03
2022-11-04T06:01:29.856Z,5.43
2022-11-04T06:03:58.156Z,3.00
2022-11-04T06:06:26.200Z,3.70
2022-11-04T06:08:53.342Z,4.43
2022-11-04T06:11:21.111Z,2.97
2022-11-04T06:13:48.605Z,3.25
2022-11-04T06:16:15.363Z,4.55
2022-11-04T06:18:42.081Z,4.78
2022-11-04T06:21:14.856Z,2.35
2022-11-04T06:23:42.907Z,2.25
2022-11-04T06:26:10.726Z,3.83
2022-11-04T06:28:37.605Z,2.42
2022-11-04T06:31:06.736Z,1.95
2022-11-04T06:33:36.818Z,2.65
2022-11-04T06:36:06.036Z,3.33
2022-11-04T06:38:34.284Z,5.15
2022-11-04T06:41:01.671Z,4.50
2022-11-04T06:43:28.451Z,4.13
2022-11-04T06:45:56.302Z,2.45
2022-11-04T06:48:23.051Z,4.45
2022-11-04T06:50:49.746Z,3.47
2022-11-04T06:58:51.155Z,2.25
2022-11-04T07:14:54.788Z,3.80
2022-11-04T07:17:22.756Z,3.92
2022-11-04T07:22:33.116Z,3.70
2022-11-04T07:27:42.157Z,3.55
2022-11-04T07:40:56.251Z,3.45
2022-11-04T07:59:39.069Z,6.93
2022-11-04T08:02:11.694Z,4.30
2022-11-04T08:04:39.168Z,5.25
2022-11-04T08:07:11.848Z,3.25
2022-11-04T09:53:49.067Z,6.88
2022-11-04T10:05:19.682Z,7.85
2022-11-04T10:20:31.258Z,5.50
2022-11-04T10:23:12.933Z,5.18
2022-11-04T10:29:15.174Z,4.32
2022-11-04T13:14:21.368Z,3.22
2022-11-04T13:54:50.645Z,5.75
2022-11-04T13:57:20.829Z,6.82
2022-11-04T14:11:01.386Z,3.80
2022-11-04T14:26:00.532Z,5.90
2022-11-04T14:42:07.823Z,4.07
2022-11-04T15:48:50.516Z,7.38
2022-11-04T15:59:40.140Z,4.55
2022-11-04T16:02:38.598Z,3.15
2022-11-04T16:05:28.954Z,7.53
2022-11-04T16:22:53.749Z,8.10
2022-11-04T16:47:07.191Z,9.95
2022-11-04T16:49:41.126Z,5.63
2022-11-04T16:55:06.039Z,8.30
2022-11-04T17:00:27.383Z,6.80
2022-11-04T17:02:56.209Z,5.80
2022-11-04T17:08:06.491Z,7.30
2022-11-04T17:26:46.620Z,6.22
2022-11-04T17:29:17.367Z,8.45
2022-11-04T17:31:53.714Z,7.45
2022-11-04T17:34:25.636Z,6.30
2022-11-04T17:45:18.719Z,21.52
2022-11-04T17:50:28.177Z,10.65
2022-11-04T17:53:00.028Z,9.23
2022-11-04T18:09:01.220Z,5.28
2022-11-04T18:27:57.443Z,6.85
2022-11-04T18:43:57.323Z,3.15
2022-11-04T18:49:08.977Z,2.83
2022-11-04T18:51:37.914Z,4.10
2022-11-04T18:56:49.120Z,7.55
2022-11-04T18:59:21.158Z,4.25
2022-11-04T19:01:51.331Z,4.20
2022-11-04T19:04:20.996Z,4.15
2022-11-04T19:06:53.986Z,6.68
2022-11-04T19:28:37.519Z,13.15
2022-11-04T19:31:14.347Z,10.18
2022-11-04T19:33:41.683Z,8.10
2022-11-04T19:36:10.158Z,7.68
2022-11-04T19:38:37.191Z,10.98
2022-11-04T19:41:06.496Z,6.07
2022-11-04T19:43:33.939Z,6.70
2022-11-04T19:46:04.579Z,13.95
2022-11-04T19:48:31.501Z,23.15
2022-11-04T19:50:58.448Z,21.00
2022-11-04T19:53:25.159Z,18.10
2022-11-04T19:55:54.905Z,19.55
2022-11-04T19:58:23.214Z,11.85
2022-11-04T20:00:51.145Z,10.52
2022-11-04T20:03:17.868Z,10.43
2022-11-04T20:05:45.146Z,8.75
2022-11-04T20:08:12.240Z,10.68
2022-11-04T20:10:42.946Z,5.80
2022-11-04T20:13:35.240Z,5.93
2022-11-04T20:16:11.403Z,8.32
2022-11-04T20:18:38.232Z,5.38
2022-11-04T20:21:05.759Z,4.68
2022-11-04T20:23:32.616Z,6.40
2022-11-04T20:26:12.870Z,4.40
2022-11-04T20:28:42.486Z,2.65
2022-11-04T20:31:17.863Z,5.20
2022-11-04T20:33:46.591Z,3.85
2022-11-04T20:36:16.222Z,4.20
2022-11-04T20:38:43.034Z,5.00
2022-11-04T20:41:15.590Z,3.00
2022-11-04T20:43:42.639Z,3.83
2022-11-04T20:46:13.546Z,2.78
2022-11-04T20:48:40.846Z,2.00
2022-11-04T20:51:08.445Z,4.68
2022-11-04T20:53:35.890Z,2.55
2022-11-04T20:56:06.990Z,4.03
2022-11-04T20:58:35.170Z,2.97
2022-11-04T21:01:09.488Z,3.38
2022-11-04T21:03:36.438Z,5.80
2022-11-04T21:06:03.146Z,7.00
2022-11-04T21:08:35.028Z,5.35
2022-11-04T21:11:03.562Z,6.32
2022-11-04T21:13:32.464Z,6.82
2022-11-04T21:16:01.205Z,8.02
2022-11-04T21:18:28.786Z,8.93
2022-11-04T21:20:56.788Z,10.95
2022-11-04T21:23:23.605Z,11.77
2022-11-04T21:25:55.987Z,6.97
2022-11-04T21:28:23.072Z,7.40
2022-11-04T21:30:52.075Z,7.35
2022-11-04T21:33:19.123Z,6.25
2022-11-04T21:35:48.161Z,6.78
2022-11-04T21:38:16.959Z,7.28
2022-11-04T21:40:44.567Z,6.07
2022-11-04T21:43:12.403Z,6.72
2022-11-04T21:45:39.236Z,8.40
2022-11-04T21:48:06.202Z,7.53
2022-11-04T21:50:33.267Z,8.13
2022-11-04T21:52:59.983Z,8.40
2022-11-04T21:55:26.801Z,12.15
2022-11-04T21:57:53.465Z,10.40
2022-11-04T22:00:20.137Z,12.43
2022-11-04T22:02:50.867Z,7.90
2022-11-04T22:05:18.156Z,7.82
2022-11-04T22:08:03.694Z,6.68
2022-11-04T22:10:30.400Z,8.40
2022-11-04T22:12:57.089Z,5.05
2022-11-04T22:15:42.263Z,9.20
2022-11-04T22:18:08.992Z,5.20
2022-11-04T22:20:36.642Z,7.75
2022-11-04T22:23:03.939Z,4.97
2022-11-04T22:25:31.281Z,6.88
2022-11-04T22:27:58.039Z,5.80
2022-11-04T22:30:25.735Z,4.47
2022-11-04T22:32:53.465Z,3.78
2022-11-04T22:35:20.162Z,5.07
2022-11-04T22:37:46.788Z,3.88
2022-11-04T22:40:13.476Z,4.22
2022-11-04T22:42:40.149Z,5.00
2022-11-04T22:45:09.206Z,3.80
2022-11-04T22:47:39.203Z,3.43
2022-11-04T22:50:06.332Z,3.28
2022-11-04T22:52:33.053Z,3.95
2022-11-04T22:54:59.878Z,3.00
2022-11-04T22:57:26.603Z,4.25
2022-11-04T22:59:53.423Z,4.68
2022-11-04T23:02:20.317Z,3.92
2022-11-04T23:04:47.308Z,7.07
2022-11-04T23:07:14.014Z,6.10
2022-11-04T23:10:00.616Z,7.10
2022-11-04T23:12:45.967Z,6.30
2022-11-04T23:15:31.252Z,3.42
2022-11-04T23:18:16.970Z,6.47
2022-11-04T23:20:43.831Z,3.03
2022-11-04T23:23:29.022Z,4.35
2022-11-04T23:25:55.728Z,3.35
2022-11-04T23:28:41.202Z,5.45
2022-11-04T23:31:07.890Z,3.95
2022-11-04T23:33:53.264Z,4.25
2022-11-04T23:36:38.640Z,4.80
2022-11-04T23:39:05.362Z,4.38
2022-11-04T23:41:50.626Z,5.50
2022-11-04T23:44:37.207Z,4.88
2022-11-04T23:47:22.581Z,4.32
2022-11-04T23:50:07.905Z,4.60
2022-11-04T23:52:53.137Z,5.28
2022-11-04T23:55:38.125Z,3.28
2022-11-04T23:58:23.408Z,5.00
